Time;durP1;ratioP1;P1;durP2;ratioP2;P2;SDS_P1;SDS_P2;PMS_P1;PMS_P2;Temp;Humidity;BMP_temperature;BMP_pressure;BME280_temperature;BME280_humidity;BME280_pressure;Samples;Min_cycle;Max_cycle;Signal;HPM_P1;HPM_P2
2021/06/24 00:01:10;;;;;;;10.10;9.07;;;20.70;75.80;;;;;;5050093;28;20447;-44
2021/06/24 00:03:38;;;;;;;11.07;9.83;;;20.70;76.00;;;;;;5054629;28;20450;-44
2021/06/24 00:06:06;;;;;;;12.13;9.97;;;20.80;76.00;;;;;;5055477;28;20453;-44
2021/06/24 00:08:34;;;;;;;9.60;8.80;;;20.70;75.80;;;;;;5054804;28;20460;-44
2021/06/24 00:11:03;;;;;;;12.53;8.47;;;20.80;76.00;;;;;;5061146;28;20468;-45
2021/06/24 00:13:31;;;;;;;10.57;9.57;;;20.80;75.90;;;;;;5062875;28;20458;-44
2021/06/24 00:15:58;;;;;;;10.00;9.13;;;20.80;75.70;;;;;;5061866;28;20462;-44
2021/06/24 00:18:25;;;;;;;11.97;9.73;;;20.80;75.90;;;;;;5048592;28;20884;-45
2021/06/24 00:20:52;;;;;;;10.53;9.43;;;20.80;75.80;;;;;;5062586;28;20453;-45
2021/06/24 00:23:19;;;;;;;11.07;9.70;;;20.80;75.70;;;;;;5087675;28;20465;-44
2021/06/24 00:25:46;;;;;;;11.83;9.30;;;20.80;75.70;;;;;;5061103;28;20458;-44
2021/06/24 00:28:16;;;;;;;11.43;9.40;;;20.80;75.90;;;;;;5060774;28;20962;-45
2021/06/24 00:30:45;;;;;;;10.13;9.40;;;20.80;76.10;;;;;;5060144;28;20955;-45
2021/06/24 00:33:12;;;;;;;10.90;9.87;;;20.80;76.30;;;;;;5059723;28;20461;-44
2021/06/24 00:35:39;;;;;;;9.70;8.90;;;20.70;76.50;;;;;;5062458;28;20457;-44
2021/06/24 00:38:06;;;;;;;9.13;8.23;;;20.70;76.70;;;;;;5091499;27;20500;-45
2021/06/24 00:40:36;;;;;;;10.83;9.73;;;20.70;76.80;;;;;;5060965;28;20831;-44
2021/06/24 00:43:05;;;;;;;12.70;11.27;;;20.70;77.00;;;;;;5056707;28;20471;-44
2021/06/24 00:45:32;;;;;;;11.30;10.30;;;20.70;77.20;;;;;;5062204;28;20554;-44
2021/06/24 00:47:59;;;;;;;11.50;9.50;;;20.70;77.30;;;;;;5054890;28;20835;-44
2021/06/24 00:50:26;;;;;;;11.63;10.53;;;20.70;77.50;;;;;;5057859;28;20533;-44
2021/06/24 00:52:54;;;;;;;14.03;11.00;;;20.70;77.90;;;;;;5056163;28;20868;-44
2021/06/24 00:55:39;;;;;;;12.40;10.80;;;20.70;78.40;;;;;;5060072;28;20462;-45
2021/06/24 00:58:13;;;;;;;13.93;11.20;;;20.60;78.80;;;;;;5062231;28;21139;-44
2021/06/24 01:00:42;;;;;;;13.63;12.00;;;20.60;79.40;;;;;;5061614;28;20487;-44
2021/06/24 01:03:09;;;;;;;14.97;11.60;;;20.60;79.50;;;;;;5062692;28;20470;-44
2021/06/24 01:05:38;;;;;;;13.27;11.40;;;20.50;79.80;;;;;;5059761;28;20452;-45
2021/06/24 01:08:06;;;;;;;12.00;10.80;;;20.50;80.00;;;;;;5061548;28;20936;-44
2021/06/24 01:10:34;;;;;;;12.53;10.37;;;20.50;80.20;;;;;;5059027;28;20480;-44
2021/06/24 01:13:01;;;;;;;12.23;10.83;;;20.50;80.10;;;;;;5061238;28;20467;-44
2021/06/24 01:15:28;;;;;;;17.10;12.60;;;20.40;80.40;;;;;;5055377;28;20555;-44
2021/06/24 01:17:56;;;;;;;11.80;10.60;;;20.40;80.50;;;;;;5058351;28;20474;-45
2021/06/24 01:20:26;;;;;;;16.73;12.27;;;20.40;80.70;;;;;;5058504;28;20994;-44
2021/06/24 01:22:53;;;;;;;13.37;11.97;;;20.40;80.90;;;;;;5062643;28;20455;-44
2021/06/24 01:25:21;;;;;;;13.10;11.70;;;20.40;81.20;;;;;;5061813;28;20934;-44
2021/06/24 01:27:53;;;;;;;13.40;11.97;;;20.40;81.40;;;;;;5060343;28;20466;-44
2021/06/24 01:30:20;;;;;;;14.40;11.83;;;20.30;81.60;;;;;;5055641;28;20863;-44
2021/06/24 01:32:48;;;;;;;13.63;12.20;;;20.20;81.80;;;;;;5061692;28;20462;-44
2021/06/24 01:35:18;;;;;;;13.73;12.37;;;20.20;82.10;;;;;;5054254;28;20462;-44
2021/06/24 01:37:45;;;;;;;12.87;11.67;;;20.20;82.30;;;;;;5058155;28;20486;-44
2021/06/24 01:40:12;;;;;;;14.17;12.77;;;20.10;82.30;;;;;;5058904;28;20956;-44
2021/06/24 01:42:39;;;;;;;15.57;12.40;;;20.10;82.60;;;;;;5062582;28;20454;-44
2021/06/24 01:45:09;;;;;;;14.23;12.80;;;20.10;83.00;;;;;;5060882;28;20829;-44
2021/06/24 01:47:36;;;;;;;14.93;13.33;;;20.10;83.20;;;;;;5054342;28;20489;-44
2021/06/24 01:50:07;;;;;;;13.90;12.60;;;20.10;83.40;;;;;;5085392;28;20455;-44
2021/06/24 01:52:34;;;;;;;14.80;13.03;;;20.10;83.60;;;;;;5059568;28;20454;-44
2021/06/24 01:55:01;;;;;;;14.50;13.00;;;20.10;83.80;;;;;;5061055;28;20459;-44
2021/06/24 01:57:28;;;;;;;16.47;13.50;;;20.10;84.10;;;;;;5061129;28;21240;-45
2021/06/24 01:59:54;;;;;;;16.93;13.00;;;20.10;84.20;;;;;;5065622;28;20489;-44
2021/06/24 02:02:21;;;;;;;14.23;12.60;;;20.10;84.40;;;;;;5061894;28;20818;-42
2021/06/24 02:04:48;;;;;;;16.83;13.23;;;20.00;84.50;;;;;;5088132;28;20469;-41
2021/06/24 02:07:15;;;;;;;16.43;13.30;;;20.00;84.70;;;;;;5058831;28;20458;-42
2021/06/24 02:09:41;;;;;;;18.53;14.80;;;20.00;84.70;;;;;;5056448;28;20473;-42
2021/06/24 02:12:08;;;;;;;16.00;14.30;;;20.00;84.90;;;;;;5059713;28;20470;-41
2021/06/24 02:14:35;;;;;;;15.50;13.90;;;20.00;85.10;;;;;;5060602;28;20469;-42
2021/06/24 02:17:02;;;;;;;16.10;14.60;;;20.00;85.10;;;;;;5089807;27;20742;-41
2021/06/24 02:19:29;;;;;;;19.03;13.53;;;19.90;85.20;;;;;;5064222;28;20493;-42
2021/06/24 02:21:56;;;;;;;16.63;14.17;;;19.90;85.00;;;;;;5062440;28;20461;-42
2021/06/24 02:24:22;;;;;;;15.37;13.03;;;19.90;84.90;;;;;;5057495;28;20458;-41
2021/06/24 02:26:49;;;;;;;17.77;14.37;;;19.90;85.10;;;;;;5055481;28;20468;-42
2021/06/24 02:29:16;;;;;;;15.50;14.00;;;19.80;85.20;;;;;;5059597;28;20466;-42
2021/06/24 02:31:43;;;;;;;15.50;14.03;;;19.80;85.40;;;;;;5054992;28;20956;-42
2021/06/24 02:34:09;;;;;;;16.13;14.57;;;19.80;85.60;;;;;;5058694;28;20459;-42
2021/06/24 02:36:36;;;;;;;18.27;16.27;;;19.80;85.70;;;;;;5059061;28;20454;-42
2021/06/24 02:39:04;;;;;;;16.30;14.80;;;19.80;85.80;;;;;;5059474;28;21030;-42
2021/06/24 02:41:33;;;;;;;16.70;14.07;;;19.80;85.90;;;;;;5054499;28;20449;-41
2021/06/24 02:44:00;;;;;;;17.37;13.40;;;19.80;86.00;;;;;;5059293;28;20447;-41
2021/06/24 02:46:27;;;;;;;15.80;14.17;;;19.80;86.10;;;;;;5055489;28;20456;-41
2021/06/24 02:48:54;;;;;;;16.67;13.43;;;19.80;86.10;;;;;;5053020;28;20462;-42
2021/06/24 02:51:21;;;;;;;16.63;14.93;;;19.80;86.10;;;;;;5056245;28;20459;-42
2021/06/24 02:53:50;;;;;;;15.80;14.03;;;19.80;86.10;;;;;;5059775;28;20462;-42
2021/06/24 02:56:19;;;;;;;17.27;15.53;;;19.70;86.20;;;;;;5060904;28;20467;-41
2021/06/24 02:58:45;;;;;;;17.10;15.50;;;19.80;86.10;;;;;;5060322;28;20473;-42
2021/06/24 03:01:12;;;;;;;17.87;14.83;;;19.70;86.20;;;;;;5056204;28;20788;-42
2021/06/24 03:03:39;;;;;;;16.73;15.03;;;19.70;86.40;;;;;;5054517;28;20458;-42
2021/06/24 03:06:06;;;;;;;17.17;14.83;;;19.70;86.60;;;;;;5055716;28;20453;-42
2021/06/24 03:08:33;;;;;;;16.23;14.53;;;19.70;86.70;;;;;;5086223;28;20976;-42
2021/06/24 03:10:59;;;;;;;16.87;15.17;;;19.70;86.80;;;;;;5055194;28;20462;-42
2021/06/24 03:13:26;;;;;;;16.13;14.40;;;19.70;87.00;;;;;;5058014;28;20470;-41
2021/06/24 03:15:53;;;;;;;16.20;14.10;;;19.70;87.20;;;;;;5058113;28;20458;-42
2021/06/24 03:18:19;;;;;;;19.27;15.93;;;19.70;87.30;;;;;;5058584;28;20493;-42
2021/06/24 03:20:46;;;;;;;16.67;14.87;;;19.70;87.30;;;;;;5059386;28;20457;-42
2021/06/24 03:23:13;;;;;;;20.13;15.40;;;19.70;87.40;;;;;;5066368;28;20458;-42
2021/06/24 03:25:40;;;;;;;19.60;15.73;;;19.60;87.40;;;;;;5058031;28;20979;-42
2021/06/24 03:28:06;;;;;;;16.97;15.17;;;19.60;87.40;;;;;;5059238;28;20466;-41
2021/06/24 03:30:33;;;;;;;17.83;16.03;;;19.60;87.40;;;;;;5055590;28;20442;-42
2021/06/24 03:33:00;;;;;;;16.40;14.80;;;19.60;87.30;;;;;;5092658;27;21019;-42
2021/06/24 03:35:26;;;;;;;16.67;15.03;;;19.60;87.20;;;;;;5056853;28;20966;-42
2021/06/24 03:37:53;;;;;;;15.10;13.70;;;19.60;86.90;;;;;;5055821;28;20464;-42
2021/06/24 03:40:20;;;;;;;17.60;15.67;;;19.60;86.70;;;;;;5060691;28;20486;-41
2021/06/24 03:42:47;;;;;;;18.80;15.50;;;19.60;86.60;;;;;;5058525;28;21038;-42
2021/06/24 03:45:15;;;;;;;16.50;14.77;;;19.60;86.50;;;;;;5057390;28;20450;-42
2021/06/24 03:47:42;;;;;;;20.73;15.30;;;19.50;86.60;;;;;;5058322;28;20817;-42
2021/06/24 03:50:11;;;;;;;16.37;14.67;;;19.50;86.60;;;;;;5057913;28;20794;-42
2021/06/24 03:52:37;;;;;;;18.13;16.23;;;19.50;86.70;;;;;;5061406;28;20478;-42
2021/06/24 03:55:06;;;;;;;17.60;14.97;;;19.50;86.70;;;;;;5059083;28;20458;-42
2021/06/24 03:57:53;;;;;;;17.80;16.03;;;19.40;86.90;;;;;;5055041;28;20450;-42
2021/06/24 04:00:20;;;;;;;19.87;15.93;;;19.40;87.00;;;;;;5056009;28;20846;-42
2021/06/24 04:02:47;;;;;;;20.43;16.40;;;19.40;87.10;;;;;;5062559;28;20450;-42
2021/06/24 04:05:13;;;;;;;20.00;15.50;;;19.40;87.20;;;;;;5055575;28;20446;-42
2021/06/24 04:07:40;;;;;;;23.87;17.23;;;19.40;87.30;;;;;;5058437;28;20437;-42
2021/06/24 04:10:07;;;;;;;16.70;14.90;;;19.30;87.40;;;;;;5056268;28;20479;-42
2021/06/24 04:12:34;;;;;;;16.70;15.00;;;19.30;87.50;;;;;;5056321;28;20461;-42
2021/06/24 04:15:00;;;;;;;19.03;16.07;;;19.30;87.50;;;;;;5063177;28;20829;-42
2021/06/24 04:17:27;;;;;;;17.87;16.00;;;19.30;87.50;;;;;;5059845;28;20457;-41
2021/06/24 04:19:54;;;;;;;19.13;15.47;;;19.30;87.50;;;;;;5060088;28;20990;-41
2021/06/24 04:22:21;;;;;;;17.37;15.53;;;19.30;87.60;;;;;;5054833;28;20850;-42
2021/06/24 04:24:48;;;;;;;18.97;16.93;;;19.30;87.70;;;;;;5056757;28;20848;-42
2021/06/24 04:27:15;;;;;;;17.20;15.40;;;19.30;87.70;;;;;;5058819;28;20454;-42
2021/06/24 04:29:42;;;;;;;18.40;15.90;;;19.30;87.70;;;;;;5057119;28;20788;-42
2021/06/24 04:32:09;;;;;;;17.87;14.67;;;19.30;87.80;;;;;;5086100;28;20951;-42
2021/06/24 04:34:35;;;;;;;19.67;15.50;;;19.30;87.90;;;;;;5087115;28;20541;-42
2021/06/24 04:37:02;;;;;;;18.03;16.23;;;19.30;88.00;;;;;;5061334;28;20536;-42
2021/06/24 04:39:33;;;;;;;18.90;17.00;;;19.30;88.00;;;;;;5086096;28;20695;-41
2021/06/24 04:42:14;;;;;;;17.50;15.77;;;19.40;88.00;;;;;;5060630;28;20466;-42
2021/06/24 04:44:40;;;;;;;19.13;16.43;;;19.30;88.10;;;;;;5060902;28;20447;-42
2021/06/24 04:47:07;;;;;;;21.57;16.00;;;19.30;88.20;;;;;;5055214;28;20808;-42
2021/06/24 04:49:34;;;;;;;18.37;16.47;;;19.30;88.20;;;;;;5061702;28;20468;-41
2021/06/24 04:52:01;;;;;;;22.13;16.33;;;19.30;88.10;;;;;;5056589;28;20447;-42
2021/06/24 04:54:28;;;;;;;21.67;15.93;;;19.30;88.10;;;;;;5055441;28;20453;-42
2021/06/24 04:56:54;;;;;;;18.97;16.20;;;19.30;88.00;;;;;;5058951;28;20461;-42
2021/06/24 04:59:21;;;;;;;18.30;15.90;;;19.30;87.90;;;;;;5060433;28;20485;-42
2021/06/24 05:01:48;;;;;;;18.77;15.77;;;19.30;87.80;;;;;;5090348;28;20954;-42
2021/06/24 05:04:15;;;;;;;19.90;16.37;;;19.30;87.60;;;;;;5060507;28;20507;-42
2021/06/24 05:06:42;;;;;;;19.07;15.80;;;19.30;87.50;;;;;;5062564;28;20472;-42
2021/06/24 05:09:08;;;;;;;18.87;17.07;;;19.30;87.40;;;;;;5059934;28;20461;-42
2021/06/24 05:11:35;;;;;;;18.90;16.43;;;19.30;87.30;;;;;;5088691;28;20959;-42
2021/06/24 05:14:02;;;;;;;17.93;15.87;;;19.30;87.30;;;;;;5058764;28;20449;-42
2021/06/24 05:16:29;;;;;;;22.47;16.50;;;19.30;87.30;;;;;;5058262;28;20469;-42
2021/06/24 05:18:56;;;;;;;18.23;16.27;;;19.30;87.30;;;;;;5088689;28;20508;-42
2021/06/24 05:21:22;;;;;;;19.23;16.23;;;19.30;87.30;;;;;;5088833;28;20461;-42
2021/06/24 05:23:49;;;;;;;18.10;16.20;;;19.30;87.40;;;;;;5059200;28;21050;-42
2021/06/24 05:26:16;;;;;;;18.27;15.67;;;19.30;87.50;;;;;;5062406;28;20466;-42
2021/06/24 05:28:43;;;;;;;18.27;15.83;;;19.40;87.60;;;;;;5058567;28;20453;-42
2021/06/24 05:31:09;;;;;;;22.97;17.80;;;19.40;87.60;;;;;;5059523;28;20468;-42
2021/06/24 05:33:36;;;;;;;19.67;17.37;;;19.30;87.70;;;;;;5060901;28;20499;-42
2021/06/24 05:36:03;;;;;;;19.03;16.73;;;19.30;87.70;;;;;;5089546;27;20803;-42
2021/06/24 05:38:30;;;;;;;18.93;16.60;;;19.30;87.80;;;;;;5059236;28;20457;-42
2021/06/24 05:40:57;;;;;;;17.13;15.50;;;19.30;87.60;;;;;;5083620;28;20470;-42
2021/06/24 05:43:24;;;;;;;17.33;15.57;;;19.30;87.20;;;;;;5060684;28;20821;-42
2021/06/24 05:45:51;;;;;;;18.10;15.90;;;19.30;87.10;;;;;;5058793;28;20461;-42
2021/06/24 05:48:18;;;;;;;20.30;16.73;;;19.20;87.30;;;;;;5056594;28;20468;-42
2021/06/24 05:50:46;;;;;;;17.50;15.60;;;19.20;87.30;;;;;;5067650;28;20447;-43
2021/06/24 05:53:13;;;;;;;18.90;15.00;;;19.30;86.80;;;;;;5058188;28;20453;-43
2021/06/24 05:55:49;;;;;;;16.53;14.33;;;19.20;86.20;;;;;;5058669;28;20496;-43
2021/06/24 05:58:22;;;;;;;18.40;14.43;;;19.20;85.90;;;;;;5065056;28;20457;-45
2021/06/24 06:00:52;;;;;;;20.10;16.57;;;19.20;86.70;;;;;;5058258;28;20999;-44
2021/06/24 06:03:20;;;;;;;19.63;16.27;;;19.10;86.40;;;;;;5059831;28;20497;-43
2021/06/24 06:05:48;;;;;;;20.80;16.47;;;19.10;86.10;;;;;;5056654;28;20474;-43
2021/06/24 06:08:15;;;;;;;18.70;16.80;;;19.00;86.30;;;;;;5087476;28;20461;-44
2021/06/24 06:10:42;;;;;;;18.63;15.20;;;18.90;86.80;;;;;;5057987;28;20474;-44
2021/06/24 06:13:10;;;;;;;20.20;15.10;;;18.90;86.90;;;;;;5057504;28;20464;-44
2021/06/24 06:15:39;;;;;;;21.83;17.10;;;18.90;87.30;;;;;;5062990;28;20469;-45
2021/06/24 06:18:14;;;;;;;24.80;17.73;;;18.80;87.30;;;;;;5055393;28;21070;-44
2021/06/24 06:20:44;;;;;;;19.97;16.70;;;18.80;87.60;;;;;;5058664;28;20486;-44
2021/06/24 06:23:15;;;;;;;21.33;16.40;;;18.80;88.00;;;;;;5055905;28;20547;-44
2021/06/24 06:25:44;;;;;;;25.43;18.10;;;18.70;88.10;;;;;;5060740;28;20454;-43
2021/06/24 06:28:12;;;;;;;22.10;18.87;;;18.70;88.30;;;;;;5058179;28;20536;-43
2021/06/24 06:30:46;;;;;;;25.37;18.50;;;18.70;88.50;;;;;;5060002;28;20519;-44
2021/06/24 06:33:13;;;;;;;22.27;17.70;;;18.80;88.60;;;;;;5063939;28;20473;-44
2021/06/24 06:35:39;;;;;;;20.23;18.20;;;18.80;88.60;;;;;;5062925;28;20457;-43
2021/06/24 06:38:06;;;;;;;21.10;18.53;;;18.80;88.60;;;;;;5059070;28;20947;-44
2021/06/24 06:40:33;;;;;;;20.40;17.13;;;18.80;88.70;;;;;;5060567;28;20497;-43
2021/06/24 06:43:00;;;;;;;19.63;17.23;;;18.80;88.70;;;;;;5062120;28;20472;-44
2021/06/24 06:45:28;;;;;;;23.13;18.60;;;18.90;88.10;;;;;;5061368;28;20450;-43
2021/06/24 06:47:56;;;;;;;20.27;17.10;;;18.90;88.20;;;;;;5059439;28;20549;-44
2021/06/24 06:50:22;;;;;;;20.07;17.07;;;18.90;88.20;;;;;;5057217;28;20466;-43
2021/06/24 06:52:49;;;;;;;18.93;16.50;;;18.90;88.20;;;;;;5056648;28;20461;-44
2021/06/24 06:55:16;;;;;;;21.87;18.20;;;18.90;88.30;;;;;;5059820;28;20469;-44
2021/06/24 06:57:42;;;;;;;20.37;17.07;;;18.90;88.20;;;;;;5058414;28;20994;-43
2021/06/24 07:00:11;;;;;;;22.53;18.23;;;19.00;88.20;;;;;;5057121;28;20482;-44
2021/06/24 07:02:39;;;;;;;19.50;17.30;;;19.00;88.30;;;;;;5054609;28;21109;-44
2021/06/24 07:05:07;;;;;;;20.83;17.43;;;19.00;88.00;;;;;;5058294;28;20983;-44
2021/06/24 07:07:35;;;;;;;21.40;18.07;;;19.00;87.50;;;;;;5058508;28;20480;-44
2021/06/24 07:10:03;;;;;;;20.43;17.67;;;19.00;87.70;;;;;;5059465;28;20465;-44
2021/06/24 07:12:31;;;;;;;20.00;18.00;;;19.00;87.90;;;;;;5058433;28;20454;-44
2021/06/24 07:14:58;;;;;;;19.27;17.23;;;19.00;88.00;;;;;;5060814;28;21000;-43
2021/06/24 07:17:26;;;;;;;21.27;17.90;;;19.10;88.00;;;;;;5056981;28;20985;-44
2021/06/24 07:19:53;;;;;;;19.43;17.00;;;19.00;88.00;;;;;;5055552;28;21018;-45
2021/06/24 07:22:21;;;;;;;20.83;17.80;;;19.00;88.00;;;;;;5058195;28;20454;-44
2021/06/24 07:24:48;;;;;;;21.83;18.90;;;19.00;88.00;;;;;;5062092;28;20556;-44
2021/06/24 07:27:15;;;;;;;22.97;18.53;;;19.00;88.20;;;;;;5060016;28;21034;-44
2021/06/24 07:29:42;;;;;;;20.47;18.17;;;19.00;88.20;;;;;;5055083;28;20469;-44
2021/06/24 07:32:09;;;;;;;20.47;18.07;;;19.10;88.30;;;;;;5054204;28;20943;-44
2021/06/24 07:34:36;;;;;;;22.57;18.37;;;19.10;88.00;;;;;;5055637;28;20450;-44
2021/06/24 07:37:03;;;;;;;22.80;17.77;;;19.10;88.20;;;;;;5060315;28;20971;-45
2021/06/24 07:39:30;;;;;;;19.80;17.40;;;19.10;88.00;;;;;;5086606;28;20508;-44
2021/06/24 07:41:57;;;;;;;23.30;17.57;;;19.10;88.20;;;;;;5059743;28;20466;-44
2021/06/24 07:44:23;;;;;;;20.40;18.30;;;19.10;88.20;;;;;;5057436;28;20459;-44
2021/06/24 07:46:50;;;;;;;21.33;18.80;;;19.10;88.00;;;;;;5058585;28;20458;-44
2021/06/24 07:49:17;;;;;;;20.43;18.23;;;19.10;88.00;;;;;;5056986;28;20859;-44
2021/06/24 07:51:44;;;;;;;19.60;17.63;;;19.10;88.00;;;;;;5053731;28;20447;-44
2021/06/24 07:54:10;;;;;;;23.80;18.97;;;19.10;87.50;;;;;;5059607;28;20476;-44
2021/06/24 07:56:37;;;;;;;21.30;18.57;;;19.10;87.50;;;;;;5058553;28;20516;-44
2021/06/24 07:59:12;;;;;;;22.10;18.50;;;19.10;87.80;;;;;;5057628;28;20458;-44
2021/06/24 08:01:39;;;;;;;20.80;18.60;;;19.10;87.80;;;;;;5057214;28;20449;-44
2021/06/24 08:04:06;;;;;;;26.57;18.63;;;19.00;88.00;;;;;;5056804;28;20956;-44
2021/06/24 08:06:33;;;;;;;21.03;18.60;;;19.10;88.00;;;;;;5060895;28;20963;-44
2021/06/24 08:09:00;;;;;;;21.50;19.27;;;19.10;88.00;;;;;;5057979;28;20462;-44
2021/06/24 08:11:27;;;;;;;19.57;17.37;;;19.10;87.80;;;;;;5057512;28;21621;-44
2021/06/24 08:13:53;;;;;;;26.00;20.83;;;19.10;88.00;;;;;;5055749;28;20461;-44
2021/06/24 08:16:20;;;;;;;24.73;19.50;;;19.10;88.20;;;;;;5060487;28;20466;-44
2021/06/24 08:18:47;;;;;;;19.50;17.40;;;19.10;88.00;;;;;;5058631;28;20481;-44
2021/06/24 08:21:14;;;;;;;24.77;18.70;;;19.10;87.30;;;;;;5056672;28;20508;-44
2021/06/24 08:23:41;;;;;;;27.63;20.03;;;19.10;88.00;;;;;;5046837;28;20584;-44
2021/06/24 08:26:08;;;;;;;22.60;18.80;;;19.20;87.60;;;;;;5048906;28;20454;-44
2021/06/24 08:28:34;;;;;;;24.00;17.80;;;19.20;87.80;;;;;;5049402;28;21604;-44
2021/06/24 08:31:01;;;;;;;20.97;18.20;;;19.20;87.90;;;;;;5085723;28;20462;-44
2021/06/24 08:33:28;;;;;;;20.70;17.17;;;19.20;87.10;;;;;;5061533;28;20946;-44
2021/06/24 08:35:55;;;;;;;23.00;19.17;;;19.20;87.20;;;;;;5064201;28;20449;-44
2021/06/24 08:38:22;;;;;;;23.53;20.17;;;19.20;87.40;;;;;;5059062;28;20462;-44
2021/06/24 08:40:57;;;;;;;26.83;19.20;;;19.20;87.40;;;;;;5060679;28;20834;-44
2021/06/24 08:43:24;;;;;;;24.77;18.60;;;19.20;87.70;;;;;;5063537;28;20975;-45
2021/06/24 08:45:51;;;;;;;25.20;19.73;;;19.20;87.70;;;;;;5061138;28;20528;-44
2021/06/24 08:48:19;;;;;;;21.57;19.27;;;19.20;87.70;;;;;;5061185;28;20442;-44
2021/06/24 08:50:50;;;;;;;21.83;19.60;;;19.20;87.70;;;;;;5060673;28;20923;-44
2021/06/24 08:53:18;;;;;;;24.47;20.50;;;19.20;87.80;;;;;;5062434;28;20468;-45
2021/06/24 08:55:50;;;;;;;25.67;18.77;;;19.20;88.00;;;;;;5063835;28;20825;-44
2021/06/24 08:58:17;;;;;;;22.00;18.33;;;19.20;88.10;;;;;;5062445;28;20469;-44
2021/06/24 09:00:43;;;;;;;22.60;18.67;;;19.30;88.00;;;;;;5057960;28;20490;-44
2021/06/24 09:03:19;;;;;;;23.73;18.30;;;19.30;87.70;;;;;;5062475;28;20823;-44
2021/06/24 09:06:09;;;;;;;22.33;19.00;;;19.30;87.70;;;;;;5066154;28;20464;-44
2021/06/24 09:08:41;;;;;;;24.43;18.20;;;19.30;87.60;;;;;;5059278;28;20448;-45
2021/06/24 09:11:26;;;;;;;24.77;19.53;;;19.20;87.60;;;;;;5063076;28;20466;-44
2021/06/24 09:14:12;;;;;;;23.90;18.67;;;19.30;87.60;;;;;;5065125;28;20955;-44
2021/06/24 09:16:41;;;;;;;22.53;18.70;;;19.20;87.60;;;;;;5060518;28;20470;-44
2021/06/24 09:19:19;;;;;;;19.03;16.97;;;19.20;87.60;;;;;;5062057;28;20485;-44
2021/06/24 09:21:53;;;;;;;23.07;18.77;;;19.20;87.60;;;;;;5087546;28;20479;-44
2021/06/24 09:24:22;;;;;;;20.70;18.57;;;19.20;87.70;;;;;;5058846;28;20465;-44
2021/06/24 09:26:49;;;;;;;22.23;19.00;;;19.20;87.70;;;;;;5088897;28;20932;-44
2021/06/24 09:29:17;;;;;;;24.20;19.27;;;19.20;87.90;;;;;;5060581;28;20446;-44
2021/06/24 09:31:44;;;;;;;22.00;18.70;;;19.20;88.10;;;;;;5060479;28;20970;-44
2021/06/24 09:34:12;;;;;;;23.43;17.93;;;19.20;88.20;;;;;;5059857;28;20461;-44
2021/06/24 09:36:47;;;;;;;25.00;18.60;;;19.20;88.20;;;;;;5090531;28;20966;-44
2021/06/24 09:39:25;;;;;;;22.87;18.10;;;19.20;88.10;;;;;;5062816;28;20449;-45
2021/06/24 09:42:10;;;;;;;21.33;18.33;;;19.10;88.30;;;;;;5059086;28;20539;-44
2021/06/24 09:44:39;;;;;;;24.40;19.57;;;19.20;88.10;;;;;;5063887;28;20571;-44
2021/06/24 09:47:29;;;;;;;22.77;18.47;;;19.10;88.30;;;;;;5062926;28;20451;-44
2021/06/24 09:50:00;;;;;;;26.37;19.90;;;19.20;88.30;;;;;;5064202;28;20453;-45
2021/06/24 09:52:28;;;;;;;22.37;18.73;;;19.10;88.00;;;;;;5059813;28;20455;-43
2021/06/24 09:55:16;;;;;;;25.07;18.93;;;19.10;88.00;;;;;;5065086;28;20859;-44
2021/06/24 09:57:51;;;;;;;26.00;19.43;;;19.10;88.20;;;;;;5059100;28;20441;-44
2021/06/24 10:00:27;;;;;;;25.80;18.77;;;19.00;88.20;;;;;;5060336;28;20759;-44
2021/06/24 10:03:09;;;;;;;23.33;18.63;;;19.00;88.20;;;;;;5058063;28;20520;-44
2021/06/24 10:05:37;;;;;;;21.67;19.33;;;19.00;88.30;;;;;;5060328;28;20445;-44
2021/06/24 10:08:04;;;;;;;32.10;19.20;;;19.00;88.30;;;;;;5061178;28;20449;-44
2021/06/24 10:10:31;;;;;;;22.40;19.13;;;19.00;88.30;;;;;;5056540;28;20492;-44
2021/06/24 10:12:58;;;;;;;23.93;19.07;;;19.00;88.30;;;;;;5061867;28;20525;-44
2021/06/24 10:15:27;;;;;;;22.47;19.50;;;19.00;88.50;;;;;;5059558;28;20826;-44
2021/06/24 10:17:56;;;;;;;31.17;22.97;;;19.00;88.50;;;;;;5061820;28;20479;-45
2021/06/24 10:20:26;;;;;;;24.00;20.00;;;19.00;88.70;;;;;;5060849;28;20823;-44
2021/06/24 10:23:01;;;;;;;29.47;20.47;;;19.00;89.00;;;;;;5059214;28;20457;-44
2021/06/24 10:25:28;;;;;;;27.20;20.80;;;19.00;89.00;;;;;;5082687;28;21474;-44
2021/06/24 10:27:58;;;;;;;24.63;19.07;;;19.00;89.10;;;;;;5085609;28;20458;-44
2021/06/24 10:30:26;;;;;;;25.80;20.23;;;19.00;89.20;;;;;;5063723;28;20454;-44
2021/06/24 10:32:57;;;;;;;29.30;20.43;;;19.00;89.30;;;;;;5058896;28;20532;-44
2021/06/24 10:35:27;;;;;;;28.13;19.67;;;19.00;89.20;;;;;;5058034;28;21023;-44
2021/06/24 10:37:55;;;;;;;28.30;21.37;;;19.00;89.30;;;;;;5060576;28;20549;-43
2021/06/24 10:40:32;;;;;;;29.43;19.20;;;19.10;89.20;;;;;;5090010;28;20490;-44
2021/06/24 10:43:02;;;;;;;29.20;20.07;;;19.10;89.10;;;;;;5086529;28;20507;-44
2021/06/24 10:45:29;;;;;;;25.00;18.67;;;19.10;89.10;;;;;;5060021;28;20449;-44
2021/06/24 10:47:58;;;;;;;26.10;20.13;;;19.10;89.10;;;;;;5088137;28;20473;-44
2021/06/24 10:50:36;;;;;;;24.60;19.27;;;19.10;89.00;;;;;;5061094;28;20959;-44
2021/06/24 10:53:03;;;;;;;24.50;19.60;;;19.20;89.00;;;;;;5059663;28;20943;-44
2021/06/24 10:55:41;;;;;;;25.70;18.87;;;19.20;88.90;;;;;;5058808;28;20895;-44
2021/06/24 10:58:11;;;;;;;21.97;19.00;;;19.20;88.80;;;;;;5057388;28;20454;-44
2021/06/24 11:00:53;;;;;;;21.73;17.67;;;19.20;88.60;;;;;;5059759;28;20570;-44
2021/06/24 11:03:36;;;;;;;22.17;17.80;;;19.20;88.50;;;;;;5055823;28;20466;-44
2021/06/24 11:06:12;;;;;;;23.07;17.80;;;19.20;88.30;;;;;;5055922;28;20485;-44
2021/06/24 11:08:40;;;;;;;21.97;18.90;;;19.20;88.20;;;;;;5056811;28;20466;-44
2021/06/24 11:11:15;;;;;;;20.73;17.33;;;19.20;88.00;;;;;;5084508;28;20457;-45
2021/06/24 11:13:44;;;;;;;21.47;18.93;;;19.20;87.90;;;;;;5061524;28;20456;-44
2021/06/24 11:16:12;;;;;;;22.07;18.40;;;19.20;88.20;;;;;;5058993;28;20469;-44
2021/06/24 11:18:51;;;;;;;21.70;17.60;;;19.20;88.20;;;;;;5060690;28;20485;-44
2021/06/24 11:21:28;;;;;;;22.70;17.70;;;19.30;88.50;;;;;;5058225;28;21085;-44
2021/06/24 11:24:12;;;;;;;20.27;16.43;;;19.20;88.50;;;;;;5056378;28;20542;-44
2021/06/24 11:26:45;;;;;;;21.70;18.40;;;19.30;88.50;;;;;;5056088;28;20824;-44
2021/06/24 11:29:19;;;;;;;18.80;16.53;;;19.30;88.40;;;;;;5083502;28;20463;-44
2021/06/24 11:32:04;;;;;;;23.70;18.23;;;19.30;88.30;;;;;;5055064;28;20965;-44
2021/06/24 11:37:06;;;;;;;23.80;18.70;;;19.30;88.60;;;;;;5055531;28;20481;-44
2021/06/24 11:39:39;;;;;;;22.07;17.00;;;19.40;88.60;;;;;;5056591;28;20468;-44
2021/06/24 11:42:12;;;;;;;22.13;18.67;;;19.40;88.30;;;;;;5057015;28;20482;-44
2021/06/24 11:44:44;;;;;;;21.40;17.50;;;19.40;88.20;;;;;;5055854;28;20460;-45
2021/06/24 11:47:15;;;;;;;22.13;18.07;;;19.40;88.30;;;;;;5049920;28;20462;-44
2021/06/24 12:04:31;;;;;;;22.53;17.43;;;19.40;88.10;;;;;;5057671;28;20445;-44
2021/06/24 12:07:09;;;;;;;24.30;18.23;;;19.40;88.00;;;;;;5058816;28;20462;-44
2021/06/24 12:09:43;;;;;;;24.30;16.13;;;19.40;87.90;;;;;;5058828;28;20458;-44
2021/06/24 12:12:31;;;;;;;21.40;16.13;;;19.40;87.90;;;;;;5061456;28;20446;-44
2021/06/24 12:15:02;;;;;;;18.73;16.70;;;19.40;87.80;;;;;;5091779;28;22428;-45
2021/06/24 12:17:31;;;;;;;21.37;17.10;;;19.40;87.90;;;;;;5064154;28;20465;-44
2021/06/24 12:20:09;;;;;;;28.20;18.17;;;19.40;88.00;;;;;;5063452;28;20453;-45
2021/06/24 12:23:05;;;;;;;26.67;17.10;;;19.40;87.90;;;;;;5060160;28;20494;-44
2021/06/24 12:25:37;;;;;;;22.13;16.60;;;19.40;88.10;;;;;;5061215;28;20458;-44
2021/06/24 12:28:06;;;;;;;20.87;16.70;;;19.40;88.10;;;;;;5062553;28;20456;-44
2021/06/24 12:30:32;;;;;;;19.53;17.43;;;19.50;88.00;;;;;;5060159;28;20449;-44
2021/06/24 12:33:05;;;;;;;23.20;15.93;;;19.50;88.10;;;;;;5088728;28;20917;-44
2021/06/24 12:35:35;;;;;;;19.70;14.77;;;19.50;88.20;;;;;;5065018;28;20453;-44
2021/06/24 12:38:14;;;;;;;18.87;15.60;;;19.50;88.20;;;;;;5064628;28;20456;-44
2021/06/24 12:40:49;;;;;;;21.63;16.00;;;19.60;87.90;;;;;;5056435;28;20460;-44
2021/06/24 12:43:30;;;;;;;17.50;14.57;;;19.50;88.20;;;;;;5058261;28;20465;-44
2021/06/24 12:45:59;;;;;;;18.07;15.40;;;19.60;88.00;;;;;;5059238;28;20480;-44
2021/06/24 12:48:46;;;;;;;16.80;15.00;;;19.60;88.00;;;;;;5092040;28;20478;-44
2021/06/24 12:51:15;;;;;;;18.30;15.13;;;19.70;88.10;;;;;;5062551;28;20458;-44
2021/06/24 12:53:44;;;;;;;20.07;16.40;;;19.70;87.80;;;;;;5065503;28;20493;-44
2021/06/24 12:56:20;;;;;;;17.23;14.70;;;19.70;87.90;;;;;;5057773;28;20475;-44